Time;durP1;ratioP1;P1;durP2;ratioP2;P2;SDS_P1;SDS_P2;PMS_P1;PMS_P2;Temp;Humidity;BMP_temperature;BMP_pressure;BME280_temperature;BME280_humidity;BME280_pressure;Samples;Min_cycle;Max_cycle;Signal;HPM_P1;HPM_P2
2021/12/13 00:01:16;;;;;;;;;;;;;;;9.13;100.00;102495.94;5051102;28;20451;-47
2021/12/13 00:03:47;;;;;;;;;;;;;;;9.10;100.00;102489.03;5056846;28;19916;-45
2021/12/13 00:06:15;;;;;;;;;;;;;;;9.11;100.00;102490.75;5056506;28;19927;-44
2021/12/13 00:08:43;;;;;;;;;;;;;;;9.11;100.00;102497.88;5039263;28;20374;-45
2021/12/13 00:11:08;;;;;;;;;;;;;;;9.11;100.00;102489.88;5056492;28;19908;-45
2021/12/13 00:13:49;;;;;;;;;;;;;;;9.10;100.00;102486.34;5055291;28;19912;-48
2021/12/13 00:16:15;;;;;;;;;;;;;;;9.09;100.00;102489.13;5055942;28;19916;-43
2021/12/13 00:18:42;;;;;;;;;;;;;;;9.08;100.00;102493.63;5037917;28;20363;-43
2021/12/13 00:21:13;;;;;;;;;;;;;;;9.07;100.00;102491.06;5035624;28;19917;-44
2021/12/13 00:23:48;;;;;;;;;;;;;;;9.07;100.00;102489.25;5031989;28;20276;-48
2021/12/13 00:26:20;;;;;;;;;;;;;;;9.06;100.00;102487.56;5023087;28;19917;-44
2021/12/13 00:28:45;;;;;;;;;;;;;;;9.04;100.00;102492.13;5022302;28;19917;-47
2021/12/13 00:31:24;;;;;;;;;;;;;;;9.04;100.00;102488.63;5033341;28;19940;-48
2021/12/13 00:34:01;;;;;;;;;;;;;;;9.03;100.00;102493.09;5031733;28;19909;-48
2021/12/13 00:36:38;;;;;;;;;;;;;;;9.03;100.00;102495.78;5027356;28;19923;-48
2021/12/13 00:39:22;;;;;;;;;;;;;;;9.01;100.00;102503.00;5036847;28;20243;-45
2021/12/13 00:41:49;;;;;;;;;;;;;;;9.00;100.00;102503.13;5021270;28;20008;-47
2021/12/13 00:44:22;;;;;;;;;;;;;;;8.98;100.00;102505.03;5028941;28;19913;-46
2021/12/13 00:46:50;;;;;;;;;;;;;;;8.98;100.00;102508.56;5035963;28;20364;-44
2021/12/13 00:49:16;;;;;;;;;;;;;;;8.98;100.00;102507.69;5035244;28;19948;-45
2021/12/13 00:51:43;;;;;;;;;;;;;;;8.96;100.00;102511.34;5021290;28;19913;-43
2021/12/13 00:54:14;;;;;;;;;;;;;;;8.96;100.00;102505.13;5036201;28;19966;-44
2021/12/13 00:56:48;;;;;;;;;;;;;;;8.94;100.00;102507.94;5035688;28;20030;-44
2021/12/13 00:59:33;;;;;;;;;;;;;;;8.95;100.00;102514.13;5034495;28;20340;-47
2021/12/13 01:02:10;;;;;;;;;;;;;;;8.95;100.00;102514.13;5035028;28;19970;-45
2021/12/13 01:04:54;;;;;;;;;;;;;;;8.95;100.00;102508.78;5033798;28;19917;-44
2021/12/13 01:07:34;;;;;;;;;;;;;;;8.94;100.00;102507.94;5034312;28;20016;-45
2021/12/13 01:10:18;;;;;;;;;;;;;;;8.93;100.00;102522.22;5034290;28;20402;-46
2021/12/13 01:12:46;;;;;;;;;;;;;;;8.91;100.00;102518.81;5036179;28;20043;-45
2021/12/13 01:15:19;;;;;;;;;;;;;;;8.92;100.00;102527.66;5036245;28;19928;-44
2021/12/13 01:17:55;;;;;;;;;;;;;;;8.90;100.00;102516.25;5036966;28;20014;-49
2021/12/13 01:20:30;;;;;;;;;;;;;;;8.87;100.00;102516.47;5034541;28;19979;-44
2021/12/13 01:23:04;;;;;;;;;;;;;;;8.86;100.00;102520.94;5036792;28;20367;-45
2021/12/13 01:25:59;;;;;;;;;;;;;;;8.86;100.00;102517.41;5050672;28;20420;-47
2021/12/13 01:28:31;;;;;;;;;;;;;;;8.84;100.00;102514.00;5045629;28;19927;-44
2021/12/13 01:31:07;;;;;;;;;;;;;;;8.83;100.00;102517.66;5055531;28;20190;-44
2021/12/13 01:33:32;;;;;;;;;;;;;;;8.77;100.00;102518.91;5055047;28;19916;-44
2021/12/13 01:36:01;;;;;;;;;;;;;;;8.81;100.00;102538.19;5054711;28;20170;-45
2021/12/13 01:38:34;;;;;;;;;;;;;;;8.80;100.00;102532.03;5044664;28;20156;-44
2021/12/13 01:41:02;;;;;;;;;;;;;;;8.81;100.00;102531.09;5050678;28;20347;-46
2021/12/13 01:43:30;;;;;;;;;;;;;;;8.80;100.00;102539.19;5054451;28;19959;-47
2021/12/13 01:45:56;;;;;;;;;;;;;;;8.79;100.00;102530.31;5054665;28;19916;-43
2021/12/13 01:48:24;;;;;;;;;;;;;;;8.76;100.00;102536.72;5055230;28;19921;-46
2021/12/13 01:51:04;;;;;;;;;;;;;;;8.75;100.00;102542.16;5054578;28;19957;-44
2021/12/13 01:53:35;;;;;;;;;;;;;;;8.73;100.00;102544.94;5054897;28;20003;-47
2021/12/13 01:56:08;;;;;;;;;;;;;;;8.72;100.00;102540.56;5046522;28;19948;-43
2021/12/13 01:58:40;;;;;;;;;;;;;;;8.70;100.00;102545.13;5046543;28;19923;-44
2021/12/13 02:01:10;;;;;;;;;;;;;;;8.72;100.00;102547.69;5038832;28;19925;-48
2021/12/13 02:03:48;;;;;;;;;;;;;;;8.71;100.00;102538.03;5039517;28;20006;-47
2021/12/13 02:06:23;;;;;;;;;;;;;;;8.69;100.00;102551.44;5054649;28;19912;-47
2021/12/13 02:08:50;;;;;;;;;;;;;;;8.70;100.00;102557.59;5055383;28;20010;-46
2021/12/13 02:11:16;;;;;;;;;;;;;;;8.67;100.00;102555.16;5054044;28;20007;-44
2021/12/13 02:14:03;;;;;;;;;;;;;;;8.64;100.00;102555.34;5054015;28;20458;-44
2021/12/13 02:19:19;;;;;;;;;;;;;;;8.60;100.00;102549.41;5054987;28;19962;-45
2021/12/13 02:21:49;;;;;;;;;;;;;;;8.59;100.00;102545.06;5048995;28;19913;-48
2021/12/13 02:24:14;;;;;;;;;;;;;;;8.56;100.00;102543.44;5043994;28;19928;-46
2021/12/13 02:26:41;;;;;;;;;;;;;;;8.56;100.00;102550.59;5041536;28;19920;-44
2021/12/13 02:29:15;;;;;;;;;;;;;;;8.57;100.00;102545.16;5034000;28;20221;-44
2021/12/13 02:31:41;;;;;;;;;;;;;;;8.55;100.00;102539.09;5034242;28;20649;-46
2021/12/13 02:34:08;;;;;;;;;;;;;;;8.54;100.00;102529.38;5024617;28;19951;-45
2021/12/13 02:36:38;;;;;;;;;;;;;;;8.55;100.00;102543.53;5054082;28;19919;-48
2021/12/13 02:39:12;;;;;;;;;;;;;;;8.53;100.00;102545.47;5036585;28;19916;-44
2021/12/13 02:41:37;;;;;;;;;;;;;;;8.52;100.00;102541.06;5038268;28;20278;-48
2021/12/13 02:44:15;;;;;;;;;;;;;;;8.53;100.00;102534.81;5052125;28;20375;-48
2021/12/13 02:46:41;;;;;;;;;;;;;;;8.50;100.00;102529.69;5055210;28;19952;-45
2021/12/13 02:49:09;;;;;;;;;;;;;;;8.50;100.00;102538.56;5054381;28;19958;-44
2021/12/13 02:51:42;;;;;;;;;;;;;;;8.50;100.00;102543.88;5037366;28;19919;-44
2021/12/13 02:54:10;;;;;;;;;;;;;;;8.50;100.00;102551.88;5026938;28;20406;-46
2021/12/13 02:56:37;;;;;;;;;;;;;;;8.48;100.00;102548.44;5046409;28;20354;-48
2021/12/13 02:59:04;;;;;;;;;;;;;;;8.48;100.00;102548.44;5053572;28;20015;-46
2021/12/13 03:01:32;;;;;;;;;;;;;;;8.46;100.00;102545.03;5054002;28;19992;-49
2021/12/13 03:03:59;;;;;;;;;;;;;;;8.46;100.00;102549.50;5051148;28;20406;-44
2021/12/13 03:06:27;;;;;;;;;;;;;;;8.46;100.00;102554.84;5036034;28;20078;-45
2021/12/13 03:08:58;;;;;;;;;;;;;;;8.46;100.00;102546.84;5053655;28;19950;-46
2021/12/13 03:11:28;;;;;;;;;;;;;;;8.46;100.00;102534.38;5039867;28;19912;-48
2021/12/13 03:13:55;;;;;;;;;;;;;;;8.43;100.00;102537.25;5058328;28;19913;-48
2021/12/13 03:16:23;;;;;;;;;;;;;;;8.44;100.00;102544.28;5056737;28;20382;-48
2021/12/13 03:18:57;;;;;;;;;;;;;;;8.43;100.00;102555.88;5058678;28;19918;-46
2021/12/13 03:21:35;;;;;;;;;;;;;;;8.41;100.00;102542.63;5056875;28;19987;-46
2021/12/13 03:24:18;;;;;;;;;;;;;;;8.41;100.00;102547.13;5058012;28;19931;-47
2021/12/13 03:26:53;;;;;;;;;;;;;;;8.40;100.00;102545.41;5058651;28;20054;-47
2021/12/13 03:29:18;;;;;;;;;;;;;;;8.40;100.00;102548.94;5056903;28;20255;-44
2021/12/13 03:31:46;;;;;;;;;;;;;;;8.39;100.00;102546.38;5058459;28;19923;-47
2021/12/13 03:34:14;;;;;;;;;;;;;;;8.38;100.00;102553.53;5048344;28;19928;-45
2021/12/13 03:36:46;;;;;;;;;;;;;;;8.39;100.00;102549.88;5049914;28;20359;-45
2021/12/13 03:39:13;;;;;;;;;;;;;;;8.35;100.00;102548.41;5057988;28;19923;-47
2021/12/13 03:41:40;;;;;;;;;;;;;;;8.39;100.00;102557.88;5057446;28;19912;-44
2021/12/13 03:44:08;;;;;;;;;;;;;;;8.37;100.00;102551.81;5056967;28;19959;-45
2021/12/13 03:46:34;;;;;;;;;;;;;;;8.37;100.00;102550.97;5056566;28;19967;-47
2021/12/13 03:49:00;;;;;;;;;;;;;;;8.37;100.00;102550.97;5057921;28;19912;-44
2021/12/13 03:51:28;;;;;;;;;;;;;;;8.35;100.00;102547.53;5054634;28;20124;-46
2021/12/13 03:53:54;;;;;;;;;;;;;;;8.35;100.00;102552.84;5043996;28;19917;-47
2021/12/13 03:56:21;;;;;;;;;;;;;;;8.34;100.00;102551.16;5047119;28;19928;-49
2021/12/13 03:58:50;;;;;;;;;;;;;;;8.35;100.00;102560.84;5049667;28;20329;-44
2021/12/13 04:01:21;;;;;;;;;;;;;;;8.33;100.00;102555.66;5056692;28;19923;-47
2021/12/13 04:03:51;;;;;;;;;;;;;;;8.33;100.00;102549.44;5039616;28;20410;-46
2021/12/13 04:06:17;;;;;;;;;;;;;;;8.32;100.00;102553.94;5055923;28;20232;-49
2021/12/13 04:08:43;;;;;;;;;;;;;;;8.31;100.00;102548.72;5057780;28;19969;-48
2021/12/13 04:11:09;;;;;;;;;;;;;;;8.31;100.00;102551.38;5056160;28;19924;-48
2021/12/13 04:13:46;;;;;;;;;;;;;;;8.31;100.00;102554.88;5056891;28;19908;-49
2021/12/13 04:16:28;;;;;;;;;;;;;;;8.31;100.00;102554.03;5039026;28;19973;-46
2021/12/13 04:19:15;;;;;;;;;;;;;;;8.31;100.00;102560.19;5056405;28;19916;-46
2021/12/13 04:21:52;;;;;;;;;;;;;;;8.31;100.00;102552.22;5041722;28;19928;-49
2021/12/13 04:24:29;;;;;;;;;;;;;;;8.31;100.00;102554.88;5056814;28;19931;-49
2021/12/13 04:26:57;;;;;;;;;;;;;;;8.30;100.00;102557.63;5056588;28;20453;-49
2021/12/13 04:29:26;;;;;;;;;;;;;;;8.27;100.00;102553.38;5037445;28;19913;-45
2021/12/13 04:31:52;;;;;;;;;;;;;;;8.27;100.00;102553.38;5037295;28;19971;-49
2021/12/13 04:34:20;;;;;;;;;;;;;;;8.28;100.00;102559.56;5045876;28;20337;-47
2021/12/13 04:36:46;;;;;;;;;;;;;;;8.28;100.00;102562.22;5042569;28;20035;-47
2021/12/13 04:39:18;;;;;;;;;;;;;;;8.27;100.00;102557.88;5019694;28;19920;-47
2021/12/13 04:41:46;;;;;;;;;;;;;;;8.29;100.00;102566.59;5056845;28;20414;-45
2021/12/13 04:44:16;;;;;;;;;;;;;;;8.28;100.00;102551.56;5056405;28;19917;-48
2021/12/13 04:46:42;;;;;;;;;;;;;;;8.27;100.00;102555.22;5050568;28;20504;-48
2021/12/13 04:49:16;;;;;;;;;;;;;;;8.26;100.00;102554.34;5020840;28;20367;-49
2021/12/13 04:51:57;;;;;;;;;;;;;;;8.26;100.00;102557.00;5056245;28;19923;-46
2021/12/13 04:54:23;;;;;;;;;;;;;;;8.26;100.00;102557.00;5056029;28;19995;-47
2021/12/13 04:56:49;;;;;;;;;;;;;;;8.27;100.00;102557.88;5055647;28;19973;-48
2021/12/13 04:59:15;;;;;;;;;;;;;;;8.26;100.00;102548.16;5055750;28;20159;-49
2021/12/13 05:01:44;;;;;;;;;;;;;;;8.28;100.00;102555.09;5056506;28;19945;-49
2021/12/13 05:04:10;;;;;;;;;;;;;;;8.26;100.00;102553.50;5056232;28;19912;-49
2021/12/13 05:06:38;;;;;;;;;;;;;;;8.29;100.00;102555.94;5055466;28;20068;-48
2021/12/13 05:09:07;;;;;;;;;;;;;;;8.30;100.00;102557.63;5055270;28;20355;-45
2021/12/13 05:11:34;;;;;;;;;;;;;;;8.29;100.00;102562.13;5055962;28;19909;-47
2021/12/13 05:14:00;;;;;;;;;;;;;;;8.31;100.00;102564.69;5037160;28;19912;-49
2021/12/13 05:16:35;;;;;;;;;;;;;;;8.30;100.00;102565.63;5038482;28;19969;-45
2021/12/13 05:19:00;;;;;;;;;;;;;;;8.29;100.00;102562.13;5056229;28;19977;-46
2021/12/13 05:21:34;;;;;;;;;;;;;;;8.29;100.00;102567.44;5054345;28;20358;-45
2021/12/13 05:24:01;;;;;;;;;;;;;;;8.28;100.00;102565.75;5055722;28;20051;-50
2021/12/13 05:26:45;;;;;;;;;;;;;;;8.28;100.00;102563.09;5055482;28;19939;-48
2021/12/13 05:29:23;;;;;;;;;;;;;;;8.29;100.00;102566.59;5035699;28;19917;-47
2021/12/13 05:31:52;;;;;;;;;;;;;;;8.29;100.00;102572.75;5054891;28;20377;-47
2021/12/13 05:34:17;;;;;;;;;;;;;;;8.30;100.00;102560.31;5035474;28;20066;-45
2021/12/13 05:36:52;;;;;;;;;;;;;;;8.30;100.00;102568.28;5035898;28;19999;-48
2021/12/13 05:39:17;;;;;;;;;;;;;;;8.29;100.00;102564.78;5034729;28;19920;-45
2021/12/13 05:41:50;;;;;;;;;;;;;;;8.30;100.00;102563.84;5035888;28;19913;-50
2021/12/13 05:44:21;;;;;;;;;;;;;;;8.29;100.00;102562.13;5016397;28;19917;-48
2021/12/13 05:46:47;;;;;;;;;;;;;;;8.29;100.00;102563.94;5035934;28;19970;-50
2021/12/13 05:49:18;;;;;;;;;;;;;;;8.29;100.00;102567.44;5036128;28;20260;-50
2021/12/13 05:51:46;;;;;;;;;;;;;;;8.29;100.00;102567.44;5034749;28;19920;-51
2021/12/13 05:54:32;;;;;;;;;;;;;;;8.30;100.00;102568.28;5035484;28;19962;-49
2021/12/13 05:57:09;;;;;;;;;;;;;;;8.30;100.00;102570.94;5035088;28;19964;-45
2021/12/13 05:59:37;;;;;;;;;;;;;;;8.30;100.00;102570.94;5034810;28;20339;-44
2021/12/13 06:02:06;;;;;;;;;;;;;;;8.28;100.00;102567.53;5035345;28;19995;-48
2021/12/13 06:04:37;;;;;;;;;;;;;;;8.26;100.00;102567.63;5035325;28;19924;-46
2021/12/13 06:07:12;;;;;;;;;;;;;;;8.26;100.00;102564.13;5034889;28;19917;-48
2021/12/13 06:09:41;;;;;;;;;;;;;;;8.27;100.00;102571.19;5016511;28;19919;-48
2021/12/13 06:12:08;;;;;;;;;;;;;;;8.24;100.00;102576.69;5033820;28;19959;-50
2021/12/13 06:14:34;;;;;;;;;;;;;;;8.24;100.00;102571.38;5035378;28;19974;-47
2021/12/13 06:17:03;;;;;;;;;;;;;;;8.25;100.00;102573.94;5033723;28;20223;-48
2021/12/13 06:19:34;;;;;;;;;;;;;;;8.24;100.00;102577.53;5034992;28;20221;-47
2021/12/13 06:22:02;;;;;;;;;;;;;;;8.23;100.00;102581.16;5033842;28;19971;-49
2021/12/13 06:24:48;;;;;;;;;;;;;;;8.24;100.00;102563.41;5035320;28;19921;-50
2021/12/13 06:27:21;;;;;;;;;;;;;;;8.25;100.00;102575.72;5020280;28;19963;-45
2021/12/13 06:29:49;;;;;;;;;;;;;;;8.23;100.00;102581.16;5034369;28;19983;-46
2021/12/13 06:32:35;;;;;;;;;;;;;;;8.22;100.00;102580.31;5039951;28;19917;-50
2021/12/13 06:35:20;;;;;;;;;;;;;;;8.21;100.00;102586.59;5053728;28;20327;-49
2021/12/13 06:37:45;;;;;;;;;;;;;;;8.16;100.00;102583.41;5036638;28;20284;-45
2021/12/13 06:40:16;;;;;;;;;;;;;;;8.19;100.00;102592.97;5053838;28;19924;-49
2021/12/13 06:42:42;;;;;;;;;;;;;;;8.17;100.00;102594.88;5054942;28;20043;-46
2021/12/13 06:45:19;;;;;;;;;;;;;;;8.13;100.00;102588.91;5054392;28;20401;-45
2021/12/13 06:47:52;;;;;;;;;;;;;;;8.17;100.00;102597.56;5054582;28;19917;-46
2021/12/13 06:50:19;;;;;;;;;;;;;;;8.16;100.00;102602.03;5053302;28;19962;-47
2021/12/13 06:52:46;;;;;;;;;;;;;;;8.16;100.00;102587.84;5055713;28;19956;-46
2021/12/13 06:55:14;;;;;;;;;;;;;;;8.15;100.00;102594.16;5053999;28;19939;-47
2021/12/13 06:57:47;;;;;;;;;;;;;;;8.11;100.00;102589.97;5054308;28;19920;-48
2021/12/13 07:00:15;;;;;;;;;;;;;;;8.16;100.00;102595.84;5055084;28;19920;-50
2021/12/13 07:02:45;;;;;;;;;;;;;;;8.16;100.00;102602.03;5055775;28;20366;-46
2021/12/13 07:05:15;;;;;;;;;;;;;;;8.15;100.00;102604.78;5040987;28;20330;-47
2021/12/13 07:07:54;;;;;;;;;;;;;;;8.14;100.00;102606.56;5035987;28;19986;-50
2021/12/13 07:10:26;;;;;;;;;;;;;;;8.14;100.00;102603.91;5015989;28;19916;-45
2021/12/13 07:12:53;;;;;;;;;;;;;;;8.15;100.00;102610.97;5034007;28;19916;-46
2021/12/13 07:15:44;;;;;;;;;;;;;;;8.17;100.00;102621.50;5034111;28;19921;-48
2021/12/13 07:18:09;;;;;;;;;;;;;;;8.17;100.00;102610.84;5030663;28;19971;-47
2021/12/13 07:20:40;;;;;;;;;;;;;;;8.16;100.00;102619.78;5034147;28;19921;-46
2021/12/13 07:23:05;;;;;;;;;;;;;;;8.14;100.00;102625.22;5034735;28;19987;-46
2021/12/13 07:25:34;;;;;;;;;;;;;;;8.13;100.00;102614.66;5034219;28;20363;-49
2021/12/13 07:28:00;;;;;;;;;;;;;;;8.11;100.00;102622.78;5032665;28;20291;-48
2021/12/13 07:30:28;;;;;;;;;;;;;;;8.09;100.00;102619.34;5034208;28;19912;-47
2021/12/13 07:32:57;;;;;;;;;;;;;;;8.11;100.00;102624.56;5045045;28;20023;-48
2021/12/13 07:35:30;;;;;;;;;;;;;;;8.10;100.00;102623.72;5053160;28;19912;-46
2021/12/13 07:38:02;;;;;;;;;;;;;;;8.10;100.00;102628.19;5054492;28;19951;-45
2021/12/13 07:40:36;;;;;;;;;;;;;;;8.09;100.00;102624.66;5053486;28;20325;-50
2021/12/13 07:43:15;;;;;;;;;;;;;;;8.09;100.00;102624.66;5053642;28;20425;-47
2021/12/13 07:45:41;;;;;;;;;;;;;;;8.07;100.00;102631.91;5055100;28;20406;-51
2021/12/13 07:48:08;;;;;;;;;;;;;;;8.07;100.00;102629.22;5053137;28;19924;-48
2021/12/13 07:50:34;;;;;;;;;;;;;;;8.07;100.00;102637.22;5053502;28;20263;-50
2021/12/13 07:53:03;;;;;;;;;;;;;;;8.08;100.00;102640.72;5057747;28;19916;-48
2021/12/13 07:55:29;;;;;;;;;;;;;;;8.09;100.00;102647.75;5057238;28;19919;-45
2021/12/13 07:57:56;;;;;;;;;;;;;;;8.10;100.00;102642.34;5039232;28;19912;-45
2021/12/13 08:00:30;;;;;;;;;;;;;;;8.10;100.00;102645.00;5056785;28;20331;-46
2021/12/13 08:03:00;;;;;;;;;;;;;;;8.10;100.00;102649.47;5058226;28;19920;-48
2021/12/13 08:05:28;;;;;;;;;;;;;;;8.11;100.00;102640.53;5038929;28;19912;-49
2021/12/13 08:07:58;;;;;;;;;;;;;;;8.11;100.00;102637.88;5057746;28;19927;-45
2021/12/13 08:10:39;;;;;;;;;;;;;;;8.09;100.00;102629.97;5038514;28;19927;-47
2021/12/13 08:13:30;;;;;;;;;;;;;;;8.11;100.00;102636.06;5054429;28;20461;-46
2021/12/13 08:15:57;;;;;;;;;;;;;;;8.10;100.00;102642.34;5051728;28;20398;-45
2021/12/13 08:18:24;;;;;;;;;;;;;;;8.11;100.00;102640.53;5056477;28;19956;-46
2021/12/13 08:20:55;;;;;;;;;;;;;;;8.11;100.00;102638.75;5056982;28;19916;-47
2021/12/13 08:23:35;;;;;;;;;;;;;;;8.12;100.00;102643.09;5056548;28;19916;-47
2021/12/13 08:26:04;;;;;;;;;;;;;;;8.13;100.00;102641.28;5053903;28;19924;-48
2021/12/13 08:28:36;;;;;;;;;;;;;;;8.11;100.00;102645.84;5049739;28;19924;-51
2021/12/13 08:31:02;;;;;;;;;;;;;;;8.12;100.00;102637.78;5041732;28;20284;-48
2021/12/13 08:33:40;;;;;;;;;;;;;;;8.12;100.00;102647.56;5055955;28;20333;-45
2021/12/13 08:36:13;;;;;;;;;;;;;;;8.13;100.00;102650.13;5055317;28;20039;-46
2021/12/13 08:38:38;;;;;;;;;;;;;;;8.13;100.00;102642.16;5054856;28;19923;-51
2021/12/13 08:41:16;;;;;;;;;;;;;;;8.14;100.00;102641.19;5056077;28;20889;-49
2021/12/13 08:43:44;;;;;;;;;;;;;;;8.12;100.00;102636.91;5054187;28;20475;-48
2021/12/13 08:46:11;;;;;;;;;;;;;;;8.13;100.00;102659.91;5056196;28;19931;-50
2021/12/13 08:49:02;;;;;;;;;;;;;;;8.13;100.00;102652.78;5056447;28;19951;-48
2021/12/13 08:51:29;;;;;;;;;;;;;;;8.14;100.00;102651.81;5053118;28;20542;-48
2021/12/13 08:54:12;;;;;;;;;;;;;;;8.15;100.00;102652.69;5056899;28;19958;-49
2021/12/13 08:56:43;;;;;;;;;;;;;;;8.15;100.00;102650.88;5054460;28;20469;-46
2021/12/13 08:59:24;;;;;;;;;;;;;;;8.15;100.00;102647.38;5054197;28;19916;-47
2021/12/13 09:02:05;;;;;;;;;;;;;;;8.17;100.00;102648.13;5057453;28;20327;-48
2021/12/13 09:04:32;;;;;;;;;;;;;;;8.15;100.00;102648.22;5046947;28;19935;-46
2021/12/13 09:06:59;;;;;;;;;;;;;;;8.18;100.00;102652.47;5035463;28;20312;-47
2021/12/13 09:09:25;;;;;;;;;;;;;;;8.17;100.00;102651.63;5037331;28;19912;-48
2021/12/13 09:11:57;;;;;;;;;;;;;;;8.17;100.00;102656.94;5035927;28;19916;-45
2021/12/13 09:14:25;;;;;;;;;;;;;;;8.18;100.00;102665.78;5036948;28;20282;-48
2021/12/13 09:17:12;;;;;;;;;;;;;;;8.19;100.00;102665.69;5040575;28;20266;-49
2021/12/13 09:19:43;;;;;;;;;;;;;;;8.18;100.00;102665.78;5055662;28;20319;-49
2021/12/13 09:22:17;;;;;;;;;;;;;;;8.20;100.00;102664.72;5056448;28;19912;-46
2021/12/13 09:25:03;;;;;;;;;;;;;;;8.20;100.00;102675.38;5055413;28;19920;-46
2021/12/13 09:27:34;;;;;;;;;;;;;;;8.22;100.00;102672.63;5044567;28;20339;-49
2021/12/13 09:30:12;;;;;;;;;;;;;;;8.22;100.00;102683.28;5056523;28;20331;-45
2021/12/13 09:32:40;;;;;;;;;;;;;;;8.21;100.00;102690.41;5054958;28;19912;-46
2021/12/13 09:35:34;;;;;;;;;;;;;;;8.22;100.00;102693.91;5054976;28;19921;-49
2021/12/13 09:38:23;;;;;;;;;;;;;;;8.21;100.00;102701.06;5037257;28;20011;-46
2021/12/13 09:40:52;;;;;;;;;;;;;;;8.22;100.00;102704.56;5044435;28;19956;-46
2021/12/13 09:43:18;;;;;;;;;;;;;;;8.24;100.00;102710.63;5054846;28;19919;-46
2021/12/13 09:45:52;;;;;;;;;;;;;;;8.26;100.00;102713.19;5056370;28;20381;-46
2021/12/13 09:48:23;;;;;;;;;;;;;;;8.28;100.00;102721.94;5054961;28;20011;-48
2021/12/13 09:50:50;;;;;;;;;;;;;;;8.30;100.00;102728.88;5055538;28;19981;-47
2021/12/13 09:53:16;;;;;;;;;;;;;;;8.32;100.00;102731.44;5055547;28;19917;-48
2021/12/13 09:55:47;;;;;;;;;;;;;;;8.33;100.00;102741.13;5055202;28;19943;-49
2021/12/13 09:58:35;;;;;;;;;;;;;;;8.34;100.00;102742.84;5054324;28;19971;-49
2021/12/13 10:01:10;;;;;;;;;;;;;;;8.35;100.00;102733.88;5029670;28;20011;-49
2021/12/13 10:03:44;;;;;;;;;;;;;;;8.35;100.00;102733.88;5053014;28;19962;-47
2021/12/13 10:06:10;;;;;;;;;;;;;;;8.37;100.00;102726.69;5053824;28;20077;-47
2021/12/13 10:08:38;;;;;;;;;;;;;;;8.37;100.00;102734.66;5054688;28;20017;-45
2021/12/13 10:11:05;;;;;;;;;;;;;;;8.40;100.00;102731.78;5054885;28;19931;-48
2021/12/13 10:13:33;;;;;;;;;;;;;;;8.41;100.00;102733.50;5054124;28;19916;-47
2021/12/13 10:16:02;;;;;;;;;;;;;;;8.42;100.00;102729.88;5054694;28;19919;-47
2021/12/13 10:18:29;;;;;;;;;;;;;;;8.43;100.00;102726.28;5054982;28;19970;-47
2021/12/13 10:21:04;;;;;;;;;;;;;;;8.45;100.00;102726.19;5053820;28;19912;-48
2021/12/13 10:23:31;;;;;;;;;;;;;;;8.46;100.00;102725.25;5054877;28;20363;-48
2021/12/13 10:26:04;;;;;;;;;;;;;;;8.45;100.00;102715.53;5035735;28;20366;-45
2021/12/13 10:28:37;;;;;;;;;;;;;;;8.44;100.00;102722.69;5053685;28;19924;-49
2021/12/13 10:31:18;;;;;;;;;;;;;;;8.47;100.00;102711.84;5052693;28;19916;-47
2021/12/13 10:33:43;;;;;;;;;;;;;;;8.47;100.00;102710.97;5055185;28;19904;-49
2021/12/13 10:36:09;;;;;;;;;;;;;;;8.47;100.00;102719.81;5053657;28;20216;-46
2021/12/13 10:38:36;;;;;;;;;;;;;;;8.46;100.00;102717.25;5055168;28;20392;-47
2021/12/13 10:41:11;;;;;;;;;;;;;;;8.47;100.00;102721.59;5053437;28;20392;-49
2021/12/13 10:43:39;;;;;;;;;;;;;;;8.45;100.00;102719.03;5053808;28;19940;-48
2021/12/13 10:46:11;;;;;;;;;;;;;;;8.46;100.00;102723.44;5035848;28;19974;-47
2021/12/13 10:48:42;;;;;;;;;;;;;;;8.45;100.00;102723.53;5054974;28;20281;-49
2021/12/13 10:51:18;;;;;;;;;;;;;;;8.46;100.00;102725.25;5054098;28;20391;-50
2021/12/13 10:53:45;;;;;;;;;;;;;;;8.46;100.00;102725.25;5054977;28;19912;-48
2021/12/13 10:56:12;;;;;;;;;;;;;;;8.46;100.00;102720.75;5052998;28;19909;-47
2021/12/13 10:58:40;;;;;;;;;;;;;;;8.45;100.00;102707.56;5053848;28;19916;-45
2021/12/13 11:01:13;;;;;;;;;;;;;;;8.46;100.00;102709.28;5054767;28;20337;-47
2021/12/13 11:03:39;;;;;;;;;;;;;;;8.48;100.00;102699.38;5052810;28;19916;-50
2021/12/13 11:06:05;;;;;;;;;;;;;;;8.47;100.00;102702.97;5053071;28;19973;-46
2021/12/13 11:08:30;;;;;;;;;;;;;;;8.47;100.00;102709.16;5053887;28;19924;-50
2021/12/13 11:11:01;;;;;;;;;;;;;;;8.47;100.00;102701.19;5035272;28;20285;-49
2021/12/13 11:13:29;;;;;;;;;;;;;;;8.48;100.00;102694.88;5053400;28;19913;-48
2021/12/13 11:15:56;;;;;;;;;;;;;;;8.51;100.00;102694.69;5054584;28;19932;-45
2021/12/13 11:18:27;;;;;;;;;;;;;;;8.51;100.00;102697.34;5035841;28;19913;-45
2021/12/13 11:20:54;;;;;;;;;;;;;;;8.52;100.00;102701.72;5054243;28;19999;-48
2021/12/13 11:23:20;;;;;;;;;;;;;;;8.52;100.00;102693.75;5054130;28;19940;-47
2021/12/13 11:25:54;;;;;;;;;;;;;;;8.52;100.00;102696.41;5054663;28;19967;-48
2021/12/13 11:28:20;;;;;;;;;;;;;;;8.53;100.00;102699.91;5056262;28;20351;-47
2021/12/13 11:30:46;;;;;;;;;;;;;;;8.53;100.00;102695.44;5058042;28;19920;-47
2021/12/13 11:33:22;;;;;;;;;;;;;;;8.56;100.00;102697.06;5058676;28;20885;-47
2021/12/13 11:36:06;;;;;;;;;;;;;;;8.54;100.00;102694.50;5057609;28;19916;-47
2021/12/13 11:39:00;;;;;;;;;;;;;;;8.53;100.00;102692.75;5038372;28;20008;-47
2021/12/13 11:41:42;;;;;;;;;;;;;;;8.55;100.00;102688.22;5037507;28;19917;-45
2021/12/13 11:44:20;;;;;;;;;;;;;;;8.56;100.00;102691.72;5059349;28;20350;-49
2021/12/13 11:46:49;;;;;;;;;;;;;;;8.56;100.00;102689.91;5060132;28;19919;-48
2021/12/13 11:49:24;;;;;;;;;;;;;;;8.59;100.00;102689.72;5060135;28;19939;-48
2021/12/13 11:51:54;;;;;;;;;;;;;;;8.58;100.00;102695.13;5056493;28;19912;-50
2021/12/13 11:54:35;;;;;;;;;;;;;;;8.57;100.00;102688.97;5057226;28;19916;-45
2021/12/13 11:57:00;;;;;;;;;;;;;;;8.57;100.00;102691.63;5056280;28;19920;-49
2021/12/13 11:59:37;;;;;;;;;;;;;;;8.56;100.00;102689.91;5056678;28;19917;-45
2021/12/13 12:02:11;;;;;;;;;;;;;;;8.54;100.00;102683.84;5056582;28;20323;-47
2021/12/13 12:05:04;;;;;;;;;;;;;;;8.55;100.00;102677.56;5056965;28;20430;-49
2021/12/13 12:07:48;;;;;;;;;;;;;;;8.57;100.00;102674.78;5056251;28;19916;-47
2021/12/13 12:10:25;;;;;;;;;;;;;;;8.57;100.00;102675.66;5055139;28;19916;-45
2021/12/13 12:13:09;;;;;;;;;;;;;;;8.56;100.00;102683.72;5057128;28;20507;-48
2021/12/13 12:15:35;;;;;;;;;;;;;;;8.56;100.00;102668.59;5056684;28;20006;-47
2021/12/13 12:18:02;;;;;;;;;;;;;;;8.56;100.00;102667.75;5039423;28;20001;-48
2021/12/13 12:20:33;;;;;;;;;;;;;;;8.57;100.00;102675.66;5056354;28;20015;-45
2021/12/13 12:23:01;;;;;;;;;;;;;;;8.56;100.00;102675.75;5057433;28;20394;-46
2021/12/13 12:25:28;;;;;;;;;;;;;;;8.56;100.00;102675.75;5056837;28;20497;-47
2021/12/13 12:27:55;;;;;;;;;;;;;;;8.56;100.00;102678.41;5055571;28;20601;-46
2021/12/13 12:30:23;;;;;;;;;;;;;;;8.57;100.00;102678.31;5056379;28;19917;-50
2021/12/13 12:32:54;;;;;;;;;;;;;;;8.58;100.00;102685.31;5039384;28;20050;-45
2021/12/13 12:35:29;;;;;;;;;;;;;;;8.56;100.00;102679.25;5056091;28;20941;-48
2021/12/13 12:37:57;;;;;;;;;;;;;;;8.58;100.00;102681.81;5056508;28;19912;-46
2021/12/13 12:40:28;;;;;;;;;;;;;;;8.57;100.00;102680.97;5055231;28;20336;-48
2021/12/13 12:42:55;;;;;;;;;;;;;;;8.58;100.00;102677.34;5056783;28;19962;-46
2021/12/13 12:45:24;;;;;;;;;;;;;;;8.57;100.00;102678.31;5056861;28;19956;-47
2021/12/13 12:47:49;;;;;;;;;;;;;;;8.58;100.00;102677.34;5057590;28;19917;-49
2021/12/13 12:50:17;;;;;;;;;;;;;;;8.57;100.00;102680.09;5055391;28;19920;-49
2021/12/13 12:53:01;;;;;;;;;;;;;;;8.57;100.00;102688.09;5057018;28;20484;-50
2021/12/13 12:55:38;;;;;;;;;;;;;;;8.55;100.00;102685.56;5054553;28;19975;-47
2021/12/13 12:58:07;;;;;;;;;;;;;;;8.55;100.00;102685.56;5055948;28;20538;-49
2021/12/13 13:00:33;;;;;;;;;;;;;;;8.54;100.00;102689.16;5056608;28;19979;-47